createdAt,value
2023-01-13T00:00:27.444Z,82.15
2023-01-13T00:02:55.278Z,82.41
2023-01-13T00:05:25.769Z,82.62
2023-01-13T00:07:53.519Z,82.61
2023-01-13T00:10:21.245Z,82.90
2023-01-13T00:12:48.999Z,81.83
2023-01-13T00:15:16.733Z,82.15
2023-01-13T00:17:44.461Z,82.21
2023-01-13T00:20:12.884Z,81.68
2023-01-13T00:22:41.969Z,81.93
2023-01-13T00:25:10.452Z,80.81
2023-01-13T00:27:38.187Z,80.66
2023-01-13T00:30:09.136Z,81.20
2023-01-13T00:32:36.825Z,81.46
2023-01-13T00:35:04.965Z,80.47
2023-01-13T00:37:32.670Z,80.44
2023-01-13T00:40:01.761Z,80.48
2023-01-13T00:42:47.011Z,80.13
2023-01-13T00:45:14.779Z,79.69
2023-01-13T00:47:42.492Z,80.01
2023-01-13T00:50:11.821Z,80.14
2023-01-13T00:52:41.906Z,79.49
2023-01-13T00:55:11.496Z,78.22
2023-01-13T00:57:40.203Z,77.88
2023-01-13T01:00:09.435Z,77.09
2023-01-13T01:02:37.254Z,77.00
2023-01-13T01:05:05.497Z,77.46
2023-01-13T01:07:33.202Z,77.16
2023-01-13T01:10:00.933Z,77.87
2023-01-13T01:12:29.993Z,76.67
2023-01-13T01:14:57.758Z,77.20
2023-01-13T01:17:25.479Z,76.92
2023-01-13T01:19:53.176Z,76.79
2023-01-13T01:22:20.856Z,76.06
2023-01-13T01:24:48.789Z,75.58
2023-01-13T01:27:16.502Z,76.23
2023-01-13T01:29:45.564Z,77.58
2023-01-13T01:32:13.269Z,76.26
2023-01-13T01:34:41.035Z,76.70
2023-01-13T01:37:08.755Z,75.44
2023-01-13T01:39:36.494Z,75.84
2023-01-13T01:42:21.816Z,74.94
2023-01-13T01:45:02.099Z,74.79
2023-01-13T01:47:30.743Z,74.82
2023-01-13T01:49:58.946Z,73.79
2023-01-13T01:52:30.548Z,73.15
2023-01-13T01:55:00.970Z,73.91
2023-01-13T01:57:31.961Z,72.52
2023-01-13T02:00:01.456Z,73.90
2023-01-13T02:02:29.543Z,72.29
2023-01-13T02:04:57.323Z,73.11
2023-01-13T02:07:28.445Z,72.26
2023-01-13T02:09:57.631Z,72.39
2023-01-13T02:12:32.298Z,72.26
2023-01-13T02:15:04.247Z,73.06
2023-01-13T02:17:41.507Z,73.34
2023-01-13T02:20:34.039Z,72.60
2023-01-13T02:23:37.229Z,71.06
2023-01-13T02:26:16.635Z,72.34
2023-01-13T02:29:19.603Z,72.94
2023-01-13T02:31:49.821Z,72.52
2023-01-13T02:34:23.026Z,73.07
2023-01-13T02:36:54.291Z,73.39
2023-01-13T02:39:26.188Z,73.66
2023-01-13T02:42:14.124Z,73.41
2023-01-13T02:44:44.914Z,73.43
2023-01-13T02:47:18.865Z,72.67
2023-01-13T02:49:48.965Z,73.42
2023-01-13T02:52:21.622Z,73.58
2023-01-13T02:54:54.121Z,73.23
2023-01-13T02:57:22.128Z,72.98
2023-01-13T02:59:50.360Z,73.33
2023-01-13T03:02:20.982Z,72.42
2023-01-13T03:04:54.285Z,72.82
2023-01-13T03:07:38.268Z,73.25
2023-01-13T03:10:11.683Z,72.00
2023-01-13T03:12:45.528Z,71.60
2023-01-13T03:15:18.882Z,72.56
2023-01-13T03:17:52.655Z,71.44
2023-01-13T03:20:23.487Z,70.99
2023-01-13T03:22:55.169Z,71.23
2023-01-13T03:25:25.663Z,70.45
2023-01-13T03:27:58.020Z,69.65
2023-01-13T03:30:30.850Z,69.39
2023-01-13T03:33:03.261Z,69.34
2023-01-13T03:35:33.200Z,69.10
2023-01-13T03:38:04.439Z,68.52
2023-01-13T03:40:34.995Z,67.78
2023-01-13T03:43:23.685Z,68.53
2023-01-13T03:45:56.085Z,66.58
2023-01-13T03:48:27.722Z,67.19
2023-01-13T03:50:57.830Z,66.45
2023-01-13T03:53:28.288Z,65.87
2023-01-13T03:55:59.424Z,66.39
2023-01-13T03:58:30.467Z,66.76
2023-01-13T04:01:00.048Z,65.28
2023-01-13T04:03:34.370Z,66.13
2023-01-13T04:06:09.809Z,65.43
2023-01-13T04:08:38.419Z,65.53
2023-01-13T04:11:08.431Z,66.67
2023-01-13T04:13:38.436Z,66.60
2023-01-13T04:16:07.704Z,66.06
2023-01-13T04:18:38.907Z,65.29
2023-01-13T04:21:07.317Z,64.98
2023-01-13T04:23:35.176Z,64.33
2023-01-13T04:26:02.787Z,66.35
2023-01-13T04:28:30.361Z,64.75
2023-01-13T04:30:58.033Z,64.92
2023-01-13T04:33:25.670Z,66.17
2023-01-13T04:35:55.193Z,65.56
2023-01-13T04:38:23.464Z,64.79
2023-01-13T04:40:51.140Z,65.01
2023-01-13T04:43:18.711Z,65.58
2023-01-13T04:45:46.418Z,65.91
2023-01-13T04:48:14.359Z,65.76
2023-01-13T04:50:42.608Z,66.26
2023-01-13T04:53:11.727Z,66.13
2023-01-13T04:55:39.429Z,66.44
2023-01-13T04:58:09.160Z,66.62
2023-01-13T05:00:37.394Z,67.44
2023-01-13T05:03:05.454Z,67.20
2023-01-13T05:05:33.237Z,67.10
2023-01-13T05:08:01.083Z,67.88
2023-01-13T05:10:30.113Z,66.89
2023-01-13T05:13:15.154Z,66.23
2023-01-13T05:16:00.662Z,67.57
2023-01-13T05:18:29.258Z,66.48
2023-01-13T05:20:56.887Z,65.89
2023-01-13T05:23:42.261Z,65.55
2023-01-13T05:26:11.283Z,66.43
2023-01-13T05:28:38.879Z,66.07
2023-01-13T05:31:06.961Z,66.32
2023-01-13T05:33:35.831Z,66.31
2023-01-13T05:36:04.534Z,66.87
2023-01-13T05:38:32.327Z,66.69
2023-01-13T05:41:18.061Z,65.97
2023-01-13T05:43:47.206Z,66.32
2023-01-13T05:46:14.949Z,66.88
2023-01-13T05:48:44.377Z,67.28
2023-01-13T05:51:13.616Z,66.37
2023-01-13T05:53:41.791Z,67.26
2023-01-13T05:56:10.546Z,67.56
2023-01-13T05:58:38.494Z,66.99
2023-01-13T06:01:09.052Z,67.92
2023-01-13T06:03:37.147Z,66.88
2023-01-13T06:06:05.174Z,67.73
2023-01-13T06:08:33.261Z,66.93
2023-01-13T06:11:01.064Z,67.44
2023-01-13T06:13:28.884Z,68.70
2023-01-13T06:15:58.231Z,68.69
2023-01-13T06:18:28.055Z,68.40
2023-01-13T06:20:56.241Z,67.70
2023-01-13T06:23:24.149Z,69.01
2023-01-13T06:25:57.113Z,67.87
2023-01-13T06:28:24.843Z,67.81
2023-01-13T06:30:55.638Z,68.84
2023-01-13T06:33:28.142Z,69.22
2023-01-13T06:35:58.489Z,69.73
2023-01-13T06:38:27.372Z,69.40
2023-01-13T06:40:55.442Z,69.82
2023-01-13T06:43:22.201Z,70.16
2023-01-13T06:45:51.730Z,69.93
2023-01-13T06:48:20.349Z,69.63
2023-01-13T06:50:49.571Z,70.33
2023-01-13T06:53:17.265Z,70.87
2023-01-13T06:55:45.001Z,70.61
2023-01-13T06:58:12.766Z,70.46
2023-01-13T07:00:40.663Z,70.71
2023-01-13T07:03:10.816Z,71.57
2023-01-13T07:05:38.774Z,71.09
2023-01-13T07:08:08.331Z,71.93
2023-01-13T07:10:37.227Z,71.29
2023-01-13T07:13:23.644Z,71.26
2023-01-13T07:15:56.234Z,70.67
2023-01-13T07:18:24.390Z,71.54
2023-01-13T07:20:56.050Z,72.13
2023-01-13T07:23:25.605Z,71.22
2023-01-13T07:25:53.411Z,70.74
2023-01-13T07:28:21.355Z,71.16
2023-01-13T07:30:49.102Z,71.43
2023-01-13T07:33:18.460Z,71.71
2023-01-13T07:35:46.662Z,69.45
2023-01-13T07:38:14.569Z,69.30
2023-01-13T07:40:43.539Z,70.72
2023-01-13T07:43:30.597Z,69.22
2023-01-13T07:45:59.607Z,69.87
2023-01-13T07:48:27.547Z,70.18
2023-01-13T07:50:55.396Z,71.94
2023-01-13T07:53:24.917Z,72.60
2023-01-13T07:55:56.254Z,71.43
2023-01-13T07:58:24.322Z,70.61
2023-01-13T08:00:52.019Z,71.43
2023-01-13T08:03:19.823Z,70.14
2023-01-13T08:05:47.660Z,69.86
2023-01-13T08:08:15.726Z,69.71
2023-01-13T08:10:43.441Z,69.40
2023-01-13T08:13:20.049Z,69.56
2023-01-13T08:15:50.104Z,70.06
2023-01-13T08:18:20.879Z,69.87
2023-01-13T08:20:49.605Z,69.39
2023-01-13T08:23:17.415Z,67.84
2023-01-13T08:25:45.352Z,68.34
2023-01-13T08:28:15.192Z,67.06
2023-01-13T08:30:43.690Z,67.02
2023-01-13T08:33:13.006Z,66.31
2023-01-13T08:35:42.165Z,67.08
2023-01-13T08:38:10.347Z,67.29
2023-01-13T08:40:39.816Z,67.66
2023-01-13T08:43:07.577Z,66.94
2023-01-13T08:45:37.157Z,67.86
2023-01-13T08:48:05.560Z,68.39
2023-01-13T08:50:33.323Z,65.46
2023-01-13T08:53:01.297Z,64.71
2023-01-13T08:55:29.157Z,66.74
2023-01-13T08:58:13.988Z,66.05
2023-01-13T09:00:44.979Z,64.83
2023-01-13T09:03:12.862Z,65.81
2023-01-13T09:05:40.584Z,66.04
2023-01-13T09:08:08.276Z,64.75
2023-01-13T09:10:36.868Z,66.20
2023-01-13T09:13:12.473Z,64.41
2023-01-13T09:15:41.373Z,63.85
2023-01-13T09:18:10.576Z,64.27
2023-01-13T09:20:38.423Z,64.07
2023-01-13T09:23:09.748Z,64.98
2023-01-13T09:25:37.992Z,64.88
2023-01-13T09:28:06.183Z,62.50
2023-01-13T09:30:33.989Z,64.15
2023-01-13T09:33:19.108Z,63.55
2023-01-13T09:35:48.439Z,64.26
2023-01-13T09:38:16.216Z,63.43
2023-01-13T09:40:44.698Z,63.07
2023-01-13T09:43:36.842Z,63.76
2023-01-13T09:46:28.575Z,62.90
2023-01-13T09:48:57.564Z,62.84
2023-01-13T09:51:31.836Z,62.92
2023-01-13T09:54:01.900Z,63.50
2023-01-13T09:56:29.651Z,63.59
2023-01-13T09:58:57.299Z,63.79
2023-01-13T10:01:28.644Z,64.73
2023-01-13T10:03:56.415Z,63.17
2023-01-13T10:06:33.415Z,63.73
2023-01-13T10:09:01.340Z,62.96
2023-01-13T10:11:50.022Z,62.43
2023-01-13T10:14:20.712Z,62.42
2023-01-13T10:16:52.677Z,62.47
2023-01-13T10:19:24.474Z,63.13
2023-01-13T10:22:16.852Z,63.23
2023-01-13T10:25:03.655Z,62.90
2023-01-13T10:27:34.798Z,64.12
2023-01-13T10:30:12.891Z,62.83
2023-01-13T10:32:43.081Z,62.54
2023-01-13T10:35:11.000Z,62.42
2023-01-13T10:37:40.377Z,62.45
2023-01-13T10:40:18.555Z,62.10
2023-01-13T10:42:46.526Z,60.98
2023-01-13T10:45:25.609Z,62.50
2023-01-13T10:48:07.613Z,62.03
2023-01-13T10:50:36.867Z,61.80
2023-01-13T10:53:18.982Z,64.00
2023-01-13T10:56:00.224Z,63.48
2023-01-13T10:58:28.828Z,65.09
2023-01-13T11:01:01.384Z,65.56
2023-01-13T11:03:37.016Z,67.36
2023-01-13T11:06:05.246Z,66.00
2023-01-13T11:08:45.472Z,67.57
2023-01-13T11:11:44.227Z,67.37
2023-01-13T11:14:50.956Z,69.78
2023-01-13T11:17:35.661Z,76.83
2023-01-13T11:20:08.485Z,77.89
2023-01-13T11:22:39.261Z,76.81
2023-01-13T11:25:11.572Z,76.91
2023-01-13T11:27:45.451Z,80.14
2023-01-13T11:30:22.353Z,80.01
2023-01-13T11:33:05.269Z,78.79
2023-01-13T11:35:35.450Z,78.66
2023-01-13T11:38:08.172Z,78.31
2023-01-13T11:40:40.290Z,77.39
2023-01-13T11:43:13.152Z,76.92
2023-01-13T11:45:44.626Z,75.79
2023-01-13T11:48:16.451Z,74.82
2023-01-13T11:50:51.012Z,74.83
2023-01-13T11:53:33.536Z,74.55
2023-01-13T11:56:11.908Z,74.28
2023-01-13T11:59:03.179Z,74.71
2023-01-13T12:01:46.227Z,74.92
2023-01-13T12:04:23.171Z,74.13
2023-01-13T12:06:55.302Z,75.21
2023-01-13T12:09:31.172Z,75.13
2023-01-13T12:12:20.622Z,74.95
2023-01-13T12:14:59.707Z,75.79
2023-01-13T12:17:33.313Z,76.57
2023-01-13T12:20:13.962Z,76.85
2023-01-13T12:22:43.281Z,78.92
2023-01-13T12:25:20.844Z,82.71
2023-01-13T12:27:54.163Z,83.37
2023-01-13T12:30:25.948Z,83.93
2023-01-13T12:32:55.735Z,83.45
2023-01-13T12:35:34.970Z,83.50
2023-01-13T12:38:05.501Z,81.28
2023-01-13T12:40:47.102Z,82.60
2023-01-13T12:43:37.243Z,81.27
2023-01-13T12:46:57.249Z,81.02
2023-01-13T12:49:27.849Z,81.75
2023-01-13T12:52:12.704Z,81.37
2023-01-13T12:55:02.944Z,80.65
2023-01-13T12:57:33.856Z,80.78
2023-01-13T13:00:17.301Z,81.11
2023-01-13T13:03:23.964Z,80.40
2023-01-13T13:05:57.843Z,80.39
2023-01-13T13:08:32.406Z,79.85
2023-01-13T13:11:38.425Z,80.59
2023-01-13T13:14:06.724Z,81.27
2023-01-13T13:16:50.415Z,78.28
2023-01-13T13:19:46.658Z,78.25
2023-01-13T13:22:19.691Z,78.61
2023-01-13T13:25:20.988Z,78.14
2023-01-13T13:27:54.221Z,76.01
2023-01-13T13:30:25.800Z,77.08
2023-01-13T13:33:04.007Z,75.10
2023-01-13T13:35:52.294Z,72.59
2023-01-13T13:38:45.953Z,73.12
2023-01-13T13:41:33.096Z,72.24
2023-01-13T13:44:19.685Z,74.07
2023-01-13T13:46:48.714Z,72.46
2023-01-13T13:49:19.217Z,73.07
2023-01-13T13:51:50.296Z,72.50
2023-01-13T13:54:19.820Z,72.39
2023-01-13T13:56:48.728Z,73.15
2023-01-13T13:59:19.668Z,73.85
2023-01-13T14:01:53.512Z,74.31
2023-01-13T14:04:25.718Z,74.30
2023-01-13T14:06:55.053Z,74.80
2023-01-13T14:09:25.231Z,74.40
2023-01-13T14:11:58.290Z,78.03
2023-01-13T14:14:26.301Z,89.85
2023-01-13T14:16:54.925Z,94.95
2023-01-13T14:19:34.749Z,99.30
2023-01-13T14:22:04.660Z,100.00
2023-01-13T14:24:32.825Z,100.00
2023-01-13T14:27:10.666Z,100.00
2023-01-13T14:29:38.573Z,100.00
2023-01-13T14:32:06.694Z,100.00
2023-01-13T14:34:35.983Z,100.00
2023-01-13T14:37:04.059Z,100.00
2023-01-13T14:39:38.797Z,100.00
2023-01-13T14:42:12.996Z,100.00
2023-01-13T14:44:45.456Z,100.00
2023-01-13T14:47:22.934Z,100.00
2023-01-13T14:50:02.523Z,100.00
2023-01-13T14:52:31.969Z,100.00
2023-01-13T14:55:29.894Z,100.00
2023-01-13T14:58:24.998Z,100.00
2023-01-13T15:00:54.299Z,100.00
2023-01-13T15:03:22.381Z,100.00
2023-01-13T15:05:52.839Z,100.00
2023-01-13T15:08:36.693Z,100.00
2023-01-13T15:11:06.130Z,100.00
2023-01-13T15:13:38.542Z,100.00
2023-01-13T15:16:08.351Z,100.00
2023-01-13T15:18:39.990Z,100.00
2023-01-13T15:21:09.567Z,100.00
2023-01-13T15:23:37.364Z,100.00
2023-01-13T15:26:05.452Z,100.00
2023-01-13T15:28:33.330Z,100.00
2023-01-13T15:31:03.746Z,100.00
2023-01-13T15:33:32.059Z,100.00
2023-01-13T15:35:59.725Z,100.00
2023-01-13T15:38:28.810Z,100.00
2023-01-13T15:40:56.508Z,100.00
2023-01-13T15:43:42.455Z,100.00
2023-01-13T15:46:33.058Z,100.00
2023-01-13T15:49:09.712Z,100.00
2023-01-13T15:51:38.824Z,100.00
2023-01-13T15:54:08.104Z,100.00
2023-01-13T15:56:37.276Z,100.00
2023-01-13T15:59:05.475Z,100.00
2023-01-13T16:01:33.140Z,100.00
2023-01-13T16:04:00.831Z,100.00
2023-01-13T16:06:32.573Z,100.00
2023-01-13T16:09:01.281Z,100.00
2023-01-13T16:11:31.052Z,100.00
2023-01-13T16:13:58.860Z,100.00
2023-01-13T16:16:28.679Z,100.00
2023-01-13T16:18:56.893Z,100.00
2023-01-13T16:21:24.630Z,100.00
2023-01-13T16:23:52.611Z,100.00
2023-01-13T16:26:22.839Z,100.00
2023-01-13T16:28:54.035Z,100.00
2023-01-13T16:31:27.194Z,100.00
2023-01-13T16:33:55.048Z,100.00
2023-01-13T16:36:23.484Z,100.00
2023-01-13T16:38:52.538Z,100.00
2023-01-13T16:41:20.449Z,100.00
2023-01-13T16:43:48.267Z,100.00
2023-01-13T16:46:21.045Z,100.00
2023-01-13T16:48:49.554Z,100.00
2023-01-13T16:51:17.431Z,100.00
2023-01-13T16:53:45.385Z,100.00
2023-01-13T16:56:24.726Z,100.00
2023-01-13T16:58:53.196Z,100.00
2023-01-13T17:01:25.771Z,100.00
2023-01-13T17:03:54.172Z,100.00
2023-01-13T17:06:24.357Z,100.00
2023-01-13T17:08:53.138Z,100.00
2023-01-13T17:11:22.034Z,100.00
2023-01-13T17:13:49.745Z,100.00
2023-01-13T17:16:19.863Z,100.00
2023-01-13T17:18:49.214Z,100.00
2023-01-13T17:21:17.327Z,99.99
2023-01-13T17:23:45.059Z,99.43
2023-01-13T17:26:29.498Z,98.94
2023-01-13T17:28:57.160Z,98.67
2023-01-13T17:31:24.891Z,98.87
2023-01-13T17:33:57.365Z,98.64
2023-01-13T17:36:30.459Z,97.19
2023-01-13T17:38:58.652Z,97.63
2023-01-13T17:41:27.215Z,96.70
2023-01-13T17:43:55.291Z,95.92
2023-01-13T17:46:42.196Z,95.91
2023-01-13T17:49:26.543Z,95.00
2023-01-13T17:51:56.679Z,94.92
2023-01-13T17:54:25.047Z,94.24
2023-01-13T17:57:08.650Z,94.37
2023-01-13T18:00:27.290Z,93.03
2023-01-13T18:02:55.446Z,92.45
2023-01-13T18:05:28.152Z,91.67
2023-01-13T18:08:02.052Z,90.95
2023-01-13T18:10:32.511Z,91.83
2023-01-13T18:13:18.085Z,91.86
2023-01-13T18:16:03.789Z,91.99
2023-01-13T18:18:34.479Z,91.02
2023-01-13T18:21:24.205Z,91.55
2023-01-13T18:24:11.434Z,91.50
2023-01-13T18:26:56.609Z,92.15
2023-01-13T18:29:39.257Z,92.87
2023-01-13T18:32:09.049Z,93.05
2023-01-13T18:34:36.967Z,93.58
2023-01-13T18:37:07.284Z,93.36
2023-01-13T18:39:37.505Z,94.11
2023-01-13T18:42:22.889Z,94.28
2023-01-13T18:44:50.783Z,94.96
2023-01-13T18:47:19.148Z,94.59
2023-01-13T18:49:47.400Z,94.67
2023-01-13T18:52:16.688Z,95.21
2023-01-13T18:54:44.568Z,95.92
2023-01-13T18:57:12.841Z,95.71
2023-01-13T18:59:40.971Z,96.40
2023-01-13T19:02:16.612Z,96.70
2023-01-13T19:04:44.499Z,96.66
2023-01-13T19:07:13.416Z,97.46
2023-01-13T19:09:43.251Z,97.98
2023-01-13T19:12:14.677Z,97.86
2023-01-13T19:14:44.708Z,98.20
2023-01-13T19:17:46.918Z,98.40
2023-01-13T19:20:14.552Z,98.11
2023-01-13T19:22:42.415Z,98.59
2023-01-13T19:25:11.520Z,99.16
2023-01-13T19:27:39.870Z,99.83
2023-01-13T19:30:08.841Z,99.84
2023-01-13T19:32:36.403Z,100.00
2023-01-13T19:35:04.119Z,100.00
2023-01-13T19:37:33.718Z,100.00
2023-01-13T19:40:01.367Z,100.00
2023-01-13T19:42:48.224Z,100.00
2023-01-13T19:45:30.676Z,100.00
2023-01-13T19:48:00.825Z,100.00
2023-01-13T19:50:28.482Z,100.00
2023-01-13T19:52:56.095Z,100.00
2023-01-13T19:55:23.788Z,100.00
2023-01-13T19:57:52.810Z,100.00
2023-01-13T20:00:21.853Z,100.00
2023-01-13T20:02:51.757Z,100.00
2023-01-13T20:05:22.356Z,100.00
2023-01-13T20:07:51.088Z,100.00
2023-01-13T20:10:20.365Z,100.00
2023-01-13T20:12:48.162Z,100.00
2023-01-13T20:15:17.331Z,100.00
2023-01-13T20:17:44.941Z,100.00
2023-01-13T20:20:13.568Z,100.00
2023-01-13T20:22:41.313Z,100.00
2023-01-13T20:25:10.244Z,100.00
2023-01-13T20:27:37.918Z,100.00
2023-01-13T20:30:09.443Z,100.00
2023-01-13T20:32:38.517Z,100.00
2023-01-13T20:35:08.164Z,100.00
2023-01-13T20:37:35.832Z,100.00
2023-01-13T20:40:04.970Z,100.00
2023-01-13T20:42:42.260Z,100.00
2023-01-13T20:45:10.838Z,100.00
2023-01-13T20:47:39.798Z,100.00
2023-01-13T20:50:08.509Z,100.00
2023-01-13T20:52:38.441Z,100.00
2023-01-13T20:55:07.320Z,100.00
2023-01-13T20:57:35.175Z,100.00
2023-01-13T21:00:03.939Z,100.00
2023-01-13T21:02:31.836Z,100.00
2023-01-13T21:05:01.088Z,100.00
2023-01-13T21:07:28.988Z,100.00
2023-01-13T21:09:57.475Z,100.00
2023-01-13T21:12:42.973Z,100.00
2023-01-13T21:15:18.252Z,100.00
2023-01-13T21:18:04.274Z,100.00
2023-01-13T21:20:34.504Z,100.00
2023-01-13T21:23:03.287Z,100.00
2023-01-13T21:25:31.402Z,100.00
2023-01-13T21:28:03.249Z,100.00
2023-01-13T21:30:31.116Z,100.00
2023-01-13T21:33:00.740Z,100.00
2023-01-13T21:35:28.397Z,100.00
2023-01-13T21:37:57.889Z,100.00
2023-01-13T21:40:25.579Z,100.00
2023-01-13T21:43:11.209Z,100.00
2023-01-13T21:45:57.407Z,100.00
2023-01-13T21:48:25.117Z,100.00
2023-01-13T21:50:53.159Z,100.00
2023-01-13T21:53:22.308Z,100.00
2023-01-13T21:55:51.531Z,100.00
2023-01-13T21:58:19.135Z,100.00
2023-01-13T22:00:49.256Z,100.00
2023-01-13T22:03:18.508Z,100.00
2023-01-13T22:05:47.175Z,100.00
2023-01-13T22:08:14.825Z,100.00
2023-01-13T22:10:57.943Z,100.00
2023-01-13T22:13:58.658Z,100.00
2023-01-13T22:16:26.852Z,100.00
2023-01-13T22:18:54.536Z,100.00
2023-01-13T22:21:22.168Z,100.00
2023-01-13T22:23:49.825Z,100.00
2023-01-13T22:26:19.135Z,100.00
2023-01-13T22:28:46.795Z,100.00
2023-01-13T22:31:15.517Z,100.00
2023-01-13T22:33:46.971Z,100.00
2023-01-13T22:36:15.179Z,100.00
2023-01-13T22:38:42.788Z,100.00
2023-01-13T22:41:10.802Z,100.00
2023-01-13T22:43:40.738Z,100.00
2023-01-13T22:46:33.149Z,100.00
2023-01-13T22:49:02.199Z,100.00
2023-01-13T22:51:30.630Z,100.00
2023-01-13T22:53:59.333Z,100.00
2023-01-13T22:56:34.197Z,100.00
2023-01-13T22:59:04.930Z,100.00
2023-01-13T23:01:33.906Z,100.00
2023-01-13T23:04:01.766Z,100.00
2023-01-13T23:06:30.902Z,100.00
2023-01-13T23:08:58.615Z,100.00
2023-01-13T23:11:27.512Z,100.00
2023-01-13T23:13:58.669Z,100.00
2023-01-13T23:16:28.969Z,100.00
2023-01-13T23:18:56.860Z,100.00
2023-01-13T23:21:27.250Z,100.00
2023-01-13T23:23:55.578Z,100.00
2023-01-13T23:26:23.983Z,100.00
2023-01-13T23:28:51.861Z,100.00
2023-01-13T23:31:21.042Z,100.00
2023-01-13T23:33:50.098Z,100.00
2023-01-13T23:36:19.901Z,100.00
2023-01-13T23:38:48.839Z,100.00
2023-01-13T23:41:17.748Z,100.00
2023-01-13T23:43:45.479Z,100.00
2023-01-13T23:46:16.515Z,100.00
2023-01-13T23:48:44.314Z,100.00
2023-01-13T23:51:14.419Z,100.00
2023-01-13T23:53:44.889Z,100.00
2023-01-13T23:56:14.710Z,100.00
2023-01-13T23:58:42.741Z,100.00
